Time;durP1;ratioP1;P1;durP2;ratioP2;P2;SDS_P1;SDS_P2;PMS_P1;PMS_P2;Temp;Humidity;BMP_temperature;BMP_pressure;BME280_temperature;BME280_humidity;BME280_pressure;Samples;Min_cycle;Max_cycle;Signal;HPM_P1;HPM_P2
2022/02/23 00:00:21;;;;;;;;;;;;;;;;;;5093938;28;19912;-85
2022/02/23 00:02:46;;;;;;;;;;;;;;;;;;5095099;28;19935;-85
2022/02/23 00:05:12;;;;;;;;;;;;;;;;;;5093845;28;19920;-85
2022/02/23 00:07:37;;;;;;;;;;;;;;;;;;5094040;28;19912;-85
2022/02/23 00:10:02;;;;;;;;;;;;;;;;;;5094105;28;19915;-85
2022/02/23 00:12:27;;;;;;;;;;;;;;;;;;5094104;28;19917;-85
2022/02/23 00:14:52;;;;;;;;;;;;;;;;;;5093591;28;19919;-85
2022/02/23 00:17:20;;;;;;;;;;;;;;;;;;5094180;28;20344;-85
2022/02/23 00:19:45;;;;;;;;;;;;;;;;;;5093828;28;19912;-85
2022/02/23 00:22:10;;;;;;;;;;;;;;;;;;5093767;28;19919;-85
2022/02/23 00:24:35;;;;;;;;;;;;;;;;;;5093488;28;19908;-85
2022/02/23 00:27:00;;;;;;;;;;;;;;;;;;5093812;28;19908;-85
2022/02/23 00:29:25;;;;;;;;;;;;;;;;;;5093729;28;20294;-85
2022/02/23 00:31:51;;;;;;;;;;;;;;;;;;5093581;28;19908;-85
2022/02/23 00:34:16;;;;;;;;;;;;;;;;;;5094809;28;19912;-85
2022/02/23 00:36:41;;;;;;;;;;;;;;;;;;5093570;28;19914;-85
2022/02/23 00:39:06;;;;;;;;;;;;;;;;;;5093436;28;20369;-85
2022/02/23 00:41:31;;;;;;;;;;;;;;;;;;5094608;28;19958;-85
2022/02/23 00:43:56;;;;;;;;;;;;;;;;;;5093536;28;19997;-85
2022/02/23 00:46:21;;;;;;;;;;;;;;;;;;5092096;28;20006;-85
2022/02/23 00:48:47;;;;;;;;;;;;;;;;;;5093335;28;19919;-85
2022/02/23 00:51:12;;;;;;;;;;;;;;;;;;5093049;28;20291;-85
2022/02/23 00:53:37;;;;;;;;;;;;;;;;;;5093082;28;19955;-85
2022/02/23 00:56:05;;;;;;;;;;;;;;;;;;5093155;28;20007;-85
2022/02/23 00:58:30;;;;;;;;;;;;;;;;;;5093028;28;19908;-85
2022/02/23 01:00:55;;;;;;;;;;;;;;;;;;5092977;28;19912;-85
2022/02/23 01:03:20;;;;;;;;;;;;;;;;;;5073590;28;20356;-85
2022/02/23 01:05:45;;;;;;;;;;;;;;;;;;5072633;28;19916;-85
2022/02/23 01:08:10;;;;;;;;;;;;;;;;;;5074382;28;19913;-85
2022/02/23 01:10:35;;;;;;;;;;;;;;;;;;5072202;28;19944;-85
2022/02/23 01:13:01;;;;;;;;;;;;;;;;;;5072565;28;20007;-85
2022/02/23 01:15:26;;;;;;;;;;;;;;;;;;5073509;28;19909;-85
2022/02/23 01:17:51;;;;;;;;;;;;;;;;;;5086653;28;19908;-85
2022/02/23 01:20:16;;;;;;;;;;;;;;;;;;5092565;28;19916;-85
2022/02/23 01:22:41;;;;;;;;;;;;;;;;;;5093949;28;20013;-85
2022/02/23 01:25:06;;;;;;;;;;;;;;;;;;5093910;28;20466;-85
2022/02/23 01:27:31;;;;;;;;;;;;;;;;;;5092598;28;19908;-85
2022/02/23 01:29:57;;;;;;;;;;;;;;;;;;5092509;28;19908;-85
2022/02/23 01:32:23;;;;;;;;;;;;;;;;;;5092576;28;19912;-85
2022/02/23 01:34:48;;;;;;;;;;;;;;;;;;5092399;28;19912;-85
2022/02/23 01:37:13;;;;;;;;;;;;;;;;;;5092461;28;19923;-85
2022/02/23 01:39:38;;;;;;;;;;;;;;;;;;5092281;28;19939;-85
2022/02/23 01:42:03;;;;;;;;;;;;;;;;;;5092408;28;19909;-84
2022/02/23 01:44:28;;;;;;;;;;;;;;;;;;5092497;28;19909;-85
2022/02/23 01:46:53;;;;;;;;;;;;;;;;;;5090425;28;19912;-84
2022/02/23 01:49:18;;;;;;;;;;;;;;;;;;5093589;28;19908;-85
2022/02/23 01:51:44;;;;;;;;;;;;;;;;;;5092226;28;19909;-85
2022/02/23 01:54:09;;;;;;;;;;;;;;;;;;5092298;28;19912;-85
2022/02/23 01:56:34;;;;;;;;;;;;;;;;;;5092174;28;19908;-85
2022/02/23 01:58:59;;;;;;;;;;;;;;;;;;5092303;28;19908;-85
2022/02/23 02:01:24;;;;;;;;;;;;;;;;;;5091452;28;19927;-85
2022/02/23 02:03:49;;;;;;;;;;;;;;;;;;5092327;28;19915;-85
2022/02/23 02:06:14;;;;;;;;;;;;;;;;;;5092319;28;19911;-85
2022/02/23 02:08:39;;;;;;;;;;;;;;;;;;5091962;28;19999;-85
2022/02/23 02:11:05;;;;;;;;;;;;;;;;;;5092122;28;19904;-85
2022/02/23 02:13:30;;;;;;;;;;;;;;;;;;5093296;28;19915;-85
2022/02/23 02:15:55;;;;;;;;;;;;;;;;;;5092137;28;19904;-85
2022/02/23 02:18:20;;;;;;;;;;;;;;;;;;5091337;28;20667;-85
2022/02/23 02:20:45;;;;;;;;;;;;;;;;;;5091424;28;19912;-84
2022/02/23 02:23:10;;;;;;;;;;;;;;;;;;5094368;28;19912;-85
2022/02/23 02:25:35;;;;;;;;;;;;;;;;;;5095951;28;20373;-85
2022/02/23 02:28:02;;;;;;;;;;;;;;;;;;5095826;28;19915;-85
2022/02/23 02:30:27;;;;;;;;;;;;;;;;;;5095984;28;19955;-84
2022/02/23 02:32:52;;;;;;;;;;;;;;;;;;5095719;28;19953;-85
2022/02/23 02:35:17;;;;;;;;;;;;;;;;;;5095901;28;19977;-85
2022/02/23 02:37:43;;;;;;;;;;;;;;;;;;5095559;28;19916;-85
2022/02/23 02:40:08;;;;;;;;;;;;;;;;;;5095494;28;19916;-85
2022/02/23 02:42:33;;;;;;;;;;;;;;;;;;5095569;28;19912;-85
2022/02/23 02:44:58;;;;;;;;;;;;;;;;;;5089112;28;20356;-85
2022/02/23 02:47:24;;;;;;;;;;;;;;;;;;5075124;28;19913;-85
2022/02/23 02:49:49;;;;;;;;;;;;;;;;;;5075090;28;19915;-85
2022/02/23 02:52:14;;;;;;;;;;;;;;;;;;5075338;28;19909;-85
2022/02/23 02:54:39;;;;;;;;;;;;;;;;;;5075372;28;20283;-85
2022/02/23 02:57:04;;;;;;;;;;;;;;;;;;5075099;28;19917;-85
2022/02/23 02:59:29;;;;;;;;;;;;;;;;;;5074971;28;19916;-84
2022/02/23 03:01:55;;;;;;;;;;;;;;;;;;5088750;28;19916;-85
2022/02/23 03:04:20;;;;;;;;;;;;;;;;;;5095381;28;20424;-85
2022/02/23 03:06:45;;;;;;;;;;;;;;;;;;5095349;28;19908;-85
2022/02/23 03:09:10;;;;;;;;;;;;;;;;;;5095275;28;20013;-85
2022/02/23 03:11:35;;;;;;;;;;;;;;;;;;5094876;28;19916;-84
2022/02/23 03:14:00;;;;;;;;;;;;;;;;;;5095142;28;19908;-85
2022/02/23 03:16:25;;;;;;;;;;;;;;;;;;5077885;28;19938;-85
2022/02/23 03:18:50;;;;;;;;;;;;;;;;;;5074740;28;19954;-85
2022/02/23 03:21:15;;;;;;;;;;;;;;;;;;5075831;28;19965;-85
2022/02/23 03:23:41;;;;;;;;;;;;;;;;;;5074513;28;19966;-85
2022/02/23 03:26:06;;;;;;;;;;;;;;;;;;5074535;28;20275;-85
2022/02/23 03:28:31;;;;;;;;;;;;;;;;;;5074374;28;19915;-85
2022/02/23 03:30:56;;;;;;;;;;;;;;;;;;5074594;28;19915;-85
2022/02/23 03:33:21;;;;;;;;;;;;;;;;;;5074039;28;20329;-85
2022/02/23 03:35:47;;;;;;;;;;;;;;;;;;5074421;28;19948;-85
2022/02/23 03:38:12;;;;;;;;;;;;;;;;;;5072041;28;20003;-85
2022/02/23 03:40:37;;;;;;;;;;;;;;;;;;5087243;28;19923;-85
2022/02/23 03:43:02;;;;;;;;;;;;;;;;;;5087697;28;20379;-85
2022/02/23 03:45:27;;;;;;;;;;;;;;;;;;5100468;27;19912;-85
2022/02/23 03:47:52;;;;;;;;;;;;;;;;;;5108015;28;19917;-85
2022/02/23 03:50:18;;;;;;;;;;;;;;;;;;5112971;27;20330;-85
2022/02/23 03:52:43;;;;;;;;;;;;;;;;;;5094216;28;19911;-85
2022/02/23 03:55:08;;;;;;;;;;;;;;;;;;5094331;28;19915;-85
2022/02/23 03:57:33;;;;;;;;;;;;;;;;;;5094360;28;19915;-85
2022/02/23 03:59:58;;;;;;;;;;;;;;;;;;5093917;28;19955;-85
2022/02/23 04:02:23;;;;;;;;;;;;;;;;;;5095450;28;20371;-85
2022/02/23 04:04:48;;;;;;;;;;;;;;;;;;5094062;28;20058;-85
2022/02/23 04:07:13;;;;;;;;;;;;;;;;;;5094152;28;19908;-85
2022/02/23 04:09:39;;;;;;;;;;;;;;;;;;5093982;28;19908;-85
2022/02/23 04:12:04;;;;;;;;;;;;;;;;;;5093863;28;20367;-85
2022/02/23 04:14:29;;;;;;;;;;;;;;;;;;5093827;28;19915;-85
2022/02/23 04:16:54;;;;;;;;;;;;;;;;;;5093675;28;19958;-85
2022/02/23 04:19:19;;;;;;;;;;;;;;;;;;5093806;28;19958;-85
2022/02/23 04:21:44;;;;;;;;;;;;;;;;;;5077000;28;19920;-85
2022/02/23 04:24:09;;;;;;;;;;;;;;;;;;5073281;28;20360;-85
2022/02/23 04:26:35;;;;;;;;;;;;;;;;;;5073308;28;20318;-85
2022/02/23 04:29:00;;;;;;;;;;;;;;;;;;5073096;28;19958;-85
2022/02/23 04:31:25;;;;;;;;;;;;;;;;;;5073039;28;19955;-85
2022/02/23 04:33:51;;;;;;;;;;;;;;;;;;5074476;28;19934;-85
2022/02/23 04:36:16;;;;;;;;;;;;;;;;;;5073072;28;19954;-85
2022/02/23 04:38:41;;;;;;;;;;;;;;;;;;5073243;28;19908;-85
2022/02/23 04:41:06;;;;;;;;;;;;;;;;;;5072815;28;19923;-85
2022/02/23 04:43:35;;;;;;;;;;;;;;;;;;5072928;28;19958;-85
2022/02/23 04:46:01;;;;;;;;;;;;;;;;;;5072523;28;19917;-85
2022/02/23 04:48:26;;;;;;;;;;;;;;;;;;5074099;28;19915;-85
2022/02/23 04:50:51;;;;;;;;;;;;;;;;;;5072915;28;19909;-85
2022/02/23 04:53:16;;;;;;;;;;;;;;;;;;5074005;28;19999;-85
2022/02/23 04:55:41;;;;;;;;;;;;;;;;;;5072650;28;19913;-84
2022/02/23 04:58:09;;;;;;;;;;;;;;;;;;5072760;28;19909;-85
2022/02/23 05:00:34;;;;;;;;;;;;;;;;;;5072708;28;19916;-85
2022/02/23 05:03:00;;;;;;;;;;;;;;;;;;5073791;28;19954;-85
2022/02/23 05:05:25;;;;;;;;;;;;;;;;;;5072631;28;19916;-85
2022/02/23 05:07:50;;;;;;;;;;;;;;;;;;5072532;28;19932;-85
2022/02/23 05:10:15;;;;;;;;;;;;;;;;;;5073689;28;19923;-85
2022/02/23 05:12:40;;;;;;;;;;;;;;;;;;5072554;28;19953;-85
2022/02/23 05:15:05;;;;;;;;;;;;;;;;;;5072604;28;20257;-85
2022/02/23 05:17:30;;;;;;;;;;;;;;;;;;5072598;28;19952;-85
2022/02/23 05:19:55;;;;;;;;;;;;;;;;;;5073685;28;19916;-85
2022/02/23 05:22:20;;;;;;;;;;;;;;;;;;5072533;28;20003;-85
2022/02/23 05:24:46;;;;;;;;;;;;;;;;;;5073820;28;19908;-85
2022/02/23 05:27:11;;;;;;;;;;;;;;;;;;5072367;28;19962;-85
2022/02/23 05:29:36;;;;;;;;;;;;;;;;;;5072031;28;19912;-85
2022/02/23 05:32:01;;;;;;;;;;;;;;;;;;5070454;28;19912;-85
2022/02/23 05:34:26;;;;;;;;;;;;;;;;;;5071143;28;19947;-85
2022/02/23 05:36:51;;;;;;;;;;;;;;;;;;5071543;28;19947;-85
2022/02/23 05:39:16;;;;;;;;;;;;;;;;;;5070520;28;19923;-85
2022/02/23 05:41:41;;;;;;;;;;;;;;;;;;5070572;28;19967;-85
2022/02/23 05:44:06;;;;;;;;;;;;;;;;;;5070804;28;20329;-85
2022/02/23 05:46:32;;;;;;;;;;;;;;;;;;5070308;28;19916;-85
2022/02/23 05:48:57;;;;;;;;;;;;;;;;;;5071098;28;19915;-85
2022/02/23 05:51:22;;;;;;;;;;;;;;;;;;5070810;28;20379;-86
2022/02/23 05:53:47;;;;;;;;;;;;;;;;;;5070707;28;19915;-86
2022/02/23 05:56:12;;;;;;;;;;;;;;;;;;5070925;28;19944;-85
2022/02/23 05:58:37;;;;;;;;;;;;;;;;;;5073775;28;20011;-85
2022/02/23 06:01:02;;;;;;;;;;;;;;;;;;5075989;28;19916;-85
2022/02/23 06:03:27;;;;;;;;;;;;;;;;;;5076201;28;20061;-85
2022/02/23 06:05:52;;;;;;;;;;;;;;;;;;5076610;28;20464;-85
2022/02/23 06:08:17;;;;;;;;;;;;;;;;;;5075978;28;19915;-86
2022/02/23 06:10:42;;;;;;;;;;;;;;;;;;5076006;28;19919;-85
2022/02/23 06:13:08;;;;;;;;;;;;;;;;;;5076107;28;19915;-85
2022/02/23 06:15:33;;;;;;;;;;;;;;;;;;5075816;28;19919;-85
2022/02/23 06:17:58;;;;;;;;;;;;;;;;;;5075891;28;19952;-85
2022/02/23 06:20:23;;;;;;;;;;;;;;;;;;5075878;28;20430;-86
2022/02/23 06:22:48;;;;;;;;;;;;;;;;;;5075864;28;19944;-85
2022/02/23 06:25:13;;;;;;;;;;;;;;;;;;5075795;28;19909;-85
2022/02/23 06:27:38;;;;;;;;;;;;;;;;;;5075596;28;19909;-85
2022/02/23 06:30:04;;;;;;;;;;;;;;;;;;5075746;28;20066;-85
2022/02/23 06:32:29;;;;;;;;;;;;;;;;;;5075702;28;19913;-85
2022/02/23 06:34:54;;;;;;;;;;;;;;;;;;5075499;28;19905;-85
2022/02/23 06:37:19;;;;;;;;;;;;;;;;;;5077634;28;19909;-85
2022/02/23 06:39:44;;;;;;;;;;;;;;;;;;5094283;28;19916;-85
2022/02/23 06:42:09;;;;;;;;;;;;;;;;;;5094766;28;19916;-85
2022/02/23 06:44:34;;;;;;;;;;;;;;;;;;5095832;28;19915;-85
2022/02/23 06:47:00;;;;;;;;;;;;;;;;;;5095496;28;19908;-85
2022/02/23 06:49:26;;;;;;;;;;;;;;;;;;5095521;28;19908;-86
2022/02/23 06:51:53;;;;;;;;;;;;;;;;;;5087063;28;20318;-85
2022/02/23 06:54:18;;;;;;;;;;;;;;;;;;5076398;28;20395;-85
2022/02/23 06:56:43;;;;;;;;;;;;;;;;;;5075234;28;19916;-85
2022/02/23 06:59:08;;;;;;;;;;;;;;;;;;5075088;28;19913;-85
2022/02/23 07:01:35;;;;;;;;;;;;;;;;;;5080486;28;19919;-85
2022/02/23 07:04:01;;;;;;;;;;;;;;;;;;5095222;28;19912;-85
2022/02/23 07:06:26;;;;;;;;;;;;;;;;;;5095206;28;20275;-85
2022/02/23 07:08:51;;;;;;;;;;;;;;;;;;5095812;28;19961;-85
2022/02/23 07:11:16;;;;;;;;;;;;;;;;;;5095162;28;19908;-85
2022/02/23 07:13:43;;;;;;;;;;;;;;;;;;5095182;28;19931;-86
2022/02/23 07:16:08;;;;;;;;;;;;;;;;;;5094736;28;19926;-86
2022/02/23 07:18:33;;;;;;;;;;;;;;;;;;5074738;28;19939;-85
2022/02/23 07:20:58;;;;;;;;;;;;;;;;;;5074677;28;20276;-85
2022/02/23 07:23:23;;;;;;;;;;;;;;;;;;5074751;28;20291;-86
2022/02/23 07:25:49;;;;;;;;;;;;;;;;;;5074748;28;19912;-86
2022/02/23 07:28:14;;;;;;;;;;;;;;;;;;5074659;28;19920;-86
2022/02/23 07:30:39;;;;;;;;;;;;;;;;;;5074428;28;19915;-85
2022/02/23 07:33:04;;;;;;;;;;;;;;;;;;5074554;28;19908;-86
2022/02/23 07:35:29;;;;;;;;;;;;;;;;;;5074566;28;19912;-85
2022/02/23 07:37:55;;;;;;;;;;;;;;;;;;5074491;28;19955;-86
2022/02/23 07:40:20;;;;;;;;;;;;;;;;;;5074032;28;20007;-85
2022/02/23 07:42:45;;;;;;;;;;;;;;;;;;5075439;28;19909;-85
2022/02/23 07:45:11;;;;;;;;;;;;;;;;;;5074005;28;19913;-85
2022/02/23 07:47:36;;;;;;;;;;;;;;;;;;5065498;28;19920;-90
2022/02/23 07:50:02;;;;;;;;;;;;;;;;;;5101672;27;20006;-86
2022/02/23 07:52:29;;;;;;;;;;;;;;;;;;5099004;28;19917;-86
2022/02/23 07:54:54;;;;;;;;;;;;;;;;;;5087491;28;19956;-86
2022/02/23 07:57:19;;;;;;;;;;;;;;;;;;5092480;28;19920;-86
2022/02/23 07:59:44;;;;;;;;;;;;;;;;;;5063944;28;19913;-86
2022/02/23 08:02:10;;;;;;;;;;;;;;;;;;5055030;28;19909;-86
2022/02/23 08:04:35;;;;;;;;;;;;;;;;;;5070486;28;19909;-86
2022/02/23 08:07:00;;;;;;;;;;;;;;;;;;5070622;28;19916;-86
2022/02/23 08:09:26;;;;;;;;;;;;;;;;;;5077348;28;19912;-86
2022/02/23 08:11:51;;;;;;;;;;;;;;;;;;5079393;28;20310;-86
2022/02/23 08:14:16;;;;;;;;;;;;;;;;;;5074990;28;20391;-86
2022/02/23 08:19:32;;;;;;;;;;;;;;;;;;5091478;28;19923;-86
2022/02/23 08:21:57;;;;;;;;;;;;;;;;;;5078311;28;19916;-86
2022/02/23 08:24:22;;;;;;;;;;;;;;;;;;5092345;28;19923;-86
2022/02/23 08:26:47;;;;;;;;;;;;;;;;;;5091721;28;19919;-86
2022/02/23 08:29:12;;;;;;;;;;;;;;;;;;5093455;28;19912;-86
2022/02/23 08:31:37;;;;;;;;;;;;;;;;;;5081962;28;19912;-86
2022/02/23 08:34:03;;;;;;;;;;;;;;;;;;5073978;28;20003;-86
2022/02/23 08:36:28;;;;;;;;;;;;;;;;;;5083611;28;20360;-86
2022/02/23 08:38:53;;;;;;;;;;;;;;;;;;5076554;28;20003;-85
2022/02/23 08:41:19;;;;;;;;;;;;;;;;;;5074005;28;19917;-86
2022/02/23 08:43:44;;;;;;;;;;;;;;;;;;5106978;28;20364;-86
2022/02/23 08:46:09;;;;;;;;;;;;;;;;;;5109321;27;19919;-86
2022/02/23 08:48:34;;;;;;;;;;;;;;;;;;5093072;28;19912;-86
2022/02/23 08:50:59;;;;;;;;;;;;;;;;;;5093051;28;19934;-86
2022/02/23 08:53:25;;;;;;;;;;;;;;;;;;5079723;28;19908;-86
2022/02/23 08:55:50;;;;;;;;;;;;;;;;;;5102460;28;19917;-86
2022/02/23 08:58:15;;;;;;;;;;;;;;;;;;5105249;28;19966;-86
2022/02/23 09:00:41;;;;;;;;;;;;;;;;;;5107200;27;19970;-86
2022/02/23 09:03:06;;;;;;;;;;;;;;;;;;5099241;28;19912;-86
2022/02/23 09:05:31;;;;;;;;;;;;;;;;;;5072391;28;19912;-86
2022/02/23 09:07:56;;;;;;;;;;;;;;;;;;5072241;28;19908;-86
2022/02/23 09:10:21;;;;;;;;;;;;;;;;;;5072964;28;20434;-85
2022/02/23 09:12:47;;;;;;;;;;;;;;;;;;5095334;28;19921;-86
2022/02/23 09:15:12;;;;;;;;;;;;;;;;;;5065561;28;19916;-86
2022/02/23 09:17:38;;;;;;;;;;;;;;;;;;5104176;28;19958;-84
2022/02/23 09:20:03;;;;;;;;;;;;;;;;;;5076201;28;19919;-83
2022/02/23 09:22:28;;;;;;;;;;;;;;;;;;5106534;28;19915;-83
2022/02/23 09:24:53;;;;;;;;;;;;;;;;;;5073926;28;20321;-83
2022/02/23 09:27:18;;;;;;;;;;;;;;;;;;5104644;28;19915;-83
2022/02/23 09:29:43;;;;;;;;;;;;;;;;;;5072423;28;19919;-83
2022/02/23 09:32:08;;;;;;;;;;;;;;;;;;5104410;28;19912;-83
2022/02/23 09:34:33;;;;;;;;;;;;;;;;;;5072023;28;20011;-83
2022/02/23 09:36:59;;;;;;;;;;;;;;;;;;5104582;28;19920;-83
2022/02/23 09:39:25;;;;;;;;;;;;;;;;;;5104205;28;19917;-83
2022/02/23 09:41:52;;;;;;;;;;;;;;;;;;5103408;28;20135;-83
2022/02/23 09:44:17;;;;;;;;;;;;;;;;;;5104572;28;19955;-83
2022/02/23 09:46:42;;;;;;;;;;;;;;;;;;5104395;28;19947;-84
2022/02/23 09:49:07;;;;;;;;;;;;;;;;;;5104146;28;19951;-84
2022/02/23 09:51:32;;;;;;;;;;;;;;;;;;5071922;28;20437;-84
2022/02/23 09:53:57;;;;;;;;;;;;;;;;;;5104540;28;19959;-84
2022/02/23 09:56:23;;;;;;;;;;;;;;;;;;5104551;28;19908;-83
2022/02/23 09:58:49;;;;;;;;;;;;;;;;;;5104367;28;20008;-83
2022/02/23 10:01:14;;;;;;;;;;;;;;;;;;5104517;28;19958;-83
2022/02/23 10:03:42;;;;;;;;;;;;;;;;;;5104604;28;19920;-84
2022/02/23 10:06:07;;;;;;;;;;;;;;;;;;5104046;28;19919;-83
2022/02/23 10:08:33;;;;;;;;;;;;;;;;;;5103739;28;19916;-83
2022/02/23 10:10:59;;;;;;;;;;;;;;;;;;5104810;28;19909;-84
2022/02/23 10:13:25;;;;;;;;;;;;;;;;;;5104479;28;19912;-83
2022/02/23 10:15:50;;;;;;;;;;;;;;;;;;5103940;28;20356;-83
2022/02/23 10:18:17;;;;;;;;;;;;;;;;;;5103878;28;20351;-84
2022/02/23 10:20:42;;;;;;;;;;;;;;;;;;5104125;28;19969;-84
2022/02/23 10:23:08;;;;;;;;;;;;;;;;;;5071473;28;19985;-84
2022/02/23 10:25:42;;;;;;;;;;;;;;;;;;5104350;28;19908;-84
2022/02/23 10:28:07;;;;;;;;;;;;;;;;;;5071534;28;19908;-84
2022/02/23 10:30:32;;;;;;;;;;;;;;;;;;5104017;28;20278;-84
2022/02/23 10:32:58;;;;;;;;;;;;;;;;;;5104157;28;19913;-83
2022/02/23 10:35:23;;;;;;;;;;;;;;;;;;5104475;28;19909;-84
2022/02/23 10:37:49;;;;;;;;;;;;;;;;;;5104068;28;19909;-83
2022/02/23 10:40:14;;;;;;;;;;;;;;;;;;5071561;28;19920;-83
2022/02/23 10:42:39;;;;;;;;;;;;;;;;;;5104063;28;20356;-84
2022/02/23 10:45:04;;;;;;;;;;;;;;;;;;5107670;28;19908;-84
2022/02/23 10:47:31;;;;;;;;;;;;;;;;;;5074902;28;19999;-84
2022/02/23 10:49:56;;;;;;;;;;;;;;;;;;5075478;28;19912;-83
2022/02/23 10:52:22;;;;;;;;;;;;;;;;;;5107924;28;19913;-84
2022/02/23 10:54:47;;;;;;;;;;;;;;;;;;5107596;28;19915;-84
2022/02/23 10:57:12;;;;;;;;;;;;;;;;;;5107202;28;19916;-84
2022/02/23 10:59:37;;;;;;;;;;;;;;;;;;5107909;28;20298;-83
2022/02/23 11:02:02;;;;;;;;;;;;;;;;;;5107330;28;20376;-84
2022/02/23 11:04:27;;;;;;;;;;;;;;;;;;5074865;28;20352;-84
2022/02/23 11:06:54;;;;;;;;;;;;;;;;;;5106853;28;19916;-84
2022/02/23 11:09:19;;;;;;;;;;;;;;;;;;5107394;28;19946;-84
2022/02/23 11:11:44;;;;;;;;;;;;;;;;;;5107229;28;20007;-84
2022/02/23 11:14:09;;;;;;;;;;;;;;;;;;5107460;28;20012;-83
2022/02/23 11:16:34;;;;;;;;;;;;;;;;;;5107113;28;20285;-84
2022/02/23 11:18:59;;;;;;;;;;;;;;;;;;5106557;28;19908;-84
2022/02/23 11:21:24;;;;;;;;;;;;;;;;;;5107094;28;19916;-84
2022/02/23 11:23:50;;;;;;;;;;;;;;;;;;5107298;28;19970;-84
2022/02/23 11:26:15;;;;;;;;;;;;;;;;;;5107075;28;19919;-84
2022/02/23 11:28:40;;;;;;;;;;;;;;;;;;5106672;28;19919;-84
2022/02/23 11:31:05;;;;;;;;;;;;;;;;;;5106448;28;19966;-84
2022/02/23 11:33:30;;;;;;;;;;;;;;;;;;5073972;28;19995;-84
2022/02/23 11:35:57;;;;;;;;;;;;;;;;;;5106714;28;19909;-84
2022/02/23 11:38:23;;;;;;;;;;;;;;;;;;5106326;28;19913;-84
2022/02/23 11:40:49;;;;;;;;;;;;;;;;;;5106983;28;20061;-84
2022/02/23 11:43:14;;;;;;;;;;;;;;;;;;5106743;28;19908;-84
2022/02/23 11:45:39;;;;;;;;;;;;;;;;;;5106312;28;19908;-84
2022/02/23 11:48:04;;;;;;;;;;;;;;;;;;5106001;28;20364;-84
2022/02/23 11:50:30;;;;;;;;;;;;;;;;;;5106534;28;19909;-83
2022/02/23 11:52:56;;;;;;;;;;;;;;;;;;5106456;28;20394;-84
2022/02/23 11:55:22;;;;;;;;;;;;;;;;;;5073681;28;19912;-83
2022/02/23 11:57:47;;;;;;;;;;;;;;;;;;5105812;28;19908;-84
2022/02/23 12:00:13;;;;;;;;;;;;;;;;;;5106211;28;19923;-84
2022/02/23 12:02:39;;;;;;;;;;;;;;;;;;5073726;28;19915;-83
2022/02/23 12:05:04;;;;;;;;;;;;;;;;;;5106150;28;20266;-84
2022/02/23 12:07:29;;;;;;;;;;;;;;;;;;5106171;28;19916;-83
2022/02/23 12:09:55;;;;;;;;;;;;;;;;;;5106433;28;19912;-84
2022/02/23 12:12:20;;;;;;;;;;;;;;;;;;5100968;28;19919;-84
2022/02/23 12:14:46;;;;;;;;;;;;;;;;;;5094863;28;19909;-84
2022/02/23 12:17:11;;;;;;;;;;;;;;;;;;5085476;28;19916;-84
2022/02/23 12:19:36;;;;;;;;;;;;;;;;;;5087039;28;19920;-83
2022/02/23 12:22:01;;;;;;;;;;;;;;;;;;5093028;28;19920;-83
2022/02/23 12:24:26;;;;;;;;;;;;;;;;;;5086011;28;19908;-83
2022/02/23 12:26:53;;;;;;;;;;;;;;;;;;5074623;28;19919;-83
2022/02/23 12:29:18;;;;;;;;;;;;;;;;;;5081415;28;20060;-83
2022/02/23 12:31:46;;;;;;;;;;;;;;;;;;5078495;28;20015;-83
2022/02/23 12:34:12;;;;;;;;;;;;;;;;;;5108060;27;19919;-88
2022/02/23 12:36:37;;;;;;;;;;;;;;;;;;5074178;28;19999;-85
2022/02/23 12:39:02;;;;;;;;;;;;;;;;;;5090810;28;20565;-88
2022/02/23 12:41:27;;;;;;;;;;;;;;;;;;5093454;28;19912;-86
2022/02/23 12:43:52;;;;;;;;;;;;;;;;;;5076706;28;20384;-86
2022/02/23 12:46:17;;;;;;;;;;;;;;;;;;5097373;27;20372;-84
2022/02/23 12:48:44;;;;;;;;;;;;;;;;;;5100861;28;19916;-88
2022/02/23 12:51:09;;;;;;;;;;;;;;;;;;5107263;28;19912;-90
2022/02/23 12:53:34;;;;;;;;;;;;;;;;;;5107347;28;19932;-91
2022/02/23 12:55:59;;;;;;;;;;;;;;;;;;5103804;28;19919;-86
2022/02/23 12:58:24;;;;;;;;;;;;;;;;;;5065809;28;19912;-87
2022/02/23 13:00:49;;;;;;;;;;;;;;;;;;5071957;28;19919;-86
2022/02/23 13:03:15;;;;;;;;;;;;;;;;;;5075032;28;20283;-86
2022/02/23 13:05:41;;;;;;;;;;;;;;;;;;5099411;28;19913;-87
2022/02/23 13:08:09;;;;;;;;;;;;;;;;;;5080259;28;19959;-86
2022/02/23 13:10:34;;;;;;;;;;;;;;;;;;5092146;28;19912;-85
2022/02/23 13:13:00;;;;;;;;;;;;;;;;;;5089458;28;20007;-85
2022/02/23 13:15:25;;;;;;;;;;;;;;;;;;5085357;28;21589;-85
2022/02/23 13:17:50;;;;;;;;;;;;;;;;;;5090867;28;19917;-86
2022/02/23 13:20:16;;;;;;;;;;;;;;;;;;5092081;28;19920;-88
2022/02/23 13:22:43;;;;;;;;;;;;;;;;;;5077114;28;20360;-86
2022/02/23 13:25:10;;;;;;;;;;;;;;;;;;5121908;27;19920;-87
2022/02/23 13:27:35;;;;;;;;;;;;;;;;;;5127044;27;20320;-87
2022/02/23 13:30:01;;;;;;;;;;;;;;;;;;5116854;27;19913;-86
2022/02/23 13:32:30;;;;;;;;;;;;;;;;;;5072523;28;20348;-87
2022/02/23 13:34:56;;;;;;;;;;;;;;;;;;5071223;28;19908;-87
2022/02/23 13:37:25;;;;;;;;;;;;;;;;;;5090523;28;19954;-87
2022/02/23 13:39:51;;;;;;;;;;;;;;;;;;5077167;28;19974;-87
2022/02/23 13:42:16;;;;;;;;;;;;;;;;;;5086068;28;19916;-87
2022/02/23 13:44:41;;;;;;;;;;;;;;;;;;5127081;27;19951;-87
2022/02/23 13:47:06;;;;;;;;;;;;;;;;;;5107856;27;19970;-87
2022/02/23 13:49:31;;;;;;;;;;;;;;;;;;5072604;28;20377;-87
2022/02/23 13:51:56;;;;;;;;;;;;;;;;;;5073798;28;19909;-87
2022/02/23 13:54:21;;;;;;;;;;;;;;;;;;5072209;28;20050;-87
2022/02/23 13:56:47;;;;;;;;;;;;;;;;;;5087219;28;20381;-87
2022/02/23 13:59:12;;;;;;;;;;;;;;;;;;5125612;28;19965;-87
2022/02/23 14:01:37;;;;;;;;;;;;;;;;;;5073635;28;19913;-87
2022/02/23 14:04:02;;;;;;;;;;;;;;;;;;5071280;28;19919;-87
2022/02/23 14:06:27;;;;;;;;;;;;;;;;;;5073618;28;19908;-87
2022/02/23 14:08:53;;;;;;;;;;;;;;;;;;5106052;28;20280;-87
2022/02/23 14:11:19;;;;;;;;;;;;;;;;;;5106215;28;19914;-87
2022/02/23 14:13:44;;;;;;;;;;;;;;;;;;5106113;28;19908;-87
2022/02/23 14:16:09;;;;;;;;;;;;;;;;;;5106157;28;20347;-87
2022/02/23 14:18:36;;;;;;;;;;;;;;;;;;5109173;28;20424;-87
2022/02/23 14:21:01;;;;;;;;;;;;;;;;;;5110172;28;19912;-87
2022/02/23 14:23:26;;;;;;;;;;;;;;;;;;5110253;28;19962;-87
2022/02/23 14:25:51;;;;;;;;;;;;;;;;;;5077433;28;19908;-87
2022/02/23 14:28:17;;;;;;;;;;;;;;;;;;5110001;28;19909;-87
2022/02/23 14:30:42;;;;;;;;;;;;;;;;;;5109942;28;19915;-87
2022/02/23 14:33:07;;;;;;;;;;;;;;;;;;5109980;28;19909;-87
2022/02/23 14:35:32;;;;;;;;;;;;;;;;;;5109962;28;19913;-87
2022/02/23 14:37:58;;;;;;;;;;;;;;;;;;5077560;28;20372;-87
2022/02/23 14:40:24;;;;;;;;;;;;;;;;;;5076916;28;19956;-87
2022/02/23 14:42:49;;;;;;;;;;;;;;;;;;5109758;28;19908;-87
2022/02/23 14:45:14;;;;;;;;;;;;;;;;;;5109588;28;19908;-87
2022/02/23 14:47:39;;;;;;;;;;;;;;;;;;5109646;28;19908;-87
2022/02/23 14:50:09;;;;;;;;;;;;;;;;;;5109672;28;19918;-87
2022/02/23 14:52:38;;;;;;;;;;;;;;;;;;5076904;28;20287;-87
2022/02/23 14:55:03;;;;;;;;;;;;;;;;;;5109502;28;19912;-87
2022/02/23 14:57:28;;;;;;;;;;;;;;;;;;5109622;28;19954;-87
2022/02/23 14:59:54;;;;;;;;;;;;;;;;;;5076794;28;20004;-87
2022/02/23 15:02:19;;;;;;;;;;;;;;;;;;5109235;28;19919;-87
2022/02/23 15:04:45;;;;;;;;;;;;;;;;;;5109326;28;19912;-87
2022/02/23 15:07:10;;;;;;;;;;;;;;;;;;5109297;28;20288;-87
2022/02/23 15:09:36;;;;;;;;;;;;;;;;;;5109427;28;19912;-87
2022/02/23 15:12:02;;;;;;;;;;;;;;;;;;5076625;28;19912;-87
2022/02/23 15:14:27;;;;;;;;;;;;;;;;;;5109064;28;19954;-87
2022/02/23 15:16:52;;;;;;;;;;;;;;;;;;5109222;28;20318;-87
2022/02/23 15:19:17;;;;;;;;;;;;;;;;;;5109176;28;19958;-87
2022/02/23 15:21:42;;;;;;;;;;;;;;;;;;5109022;28;19913;-87
2022/02/23 15:24:07;;;;;;;;;;;;;;;;;;5076247;28;19915;-87
2022/02/23 15:26:32;;;;;;;;;;;;;;;;;;5108941;28;19916;-87
2022/02/23 15:28:57;;;;;;;;;;;;;;;;;;5108329;28;19908;-87
2022/02/23 15:31:22;;;;;;;;;;;;;;;;;;5108883;28;19908;-87
2022/02/23 15:33:47;;;;;;;;;;;;;;;;;;5108843;28;19917;-87
2022/02/23 15:36:13;;;;;;;;;;;;;;;;;;5108797;28;19912;-87
2022/02/23 15:38:38;;;;;;;;;;;;;;;;;;5108829;28;19908;-87
2022/02/23 15:41:03;;;;;;;;;;;;;;;;;;5108420;28;19920;-87
2022/02/23 15:43:28;;;;;;;;;;;;;;;;;;5076061;28;19908;-87
2022/02/23 15:45:54;;;;;;;;;;;;;;;;;;5101652;28;20368;-87
2022/02/23 15:48:19;;;;;;;;;;;;;;;;;;5102248;28;19908;-86
2022/02/23 15:50:46;;;;;;;;;;;;;;;;;;5074624;28;19961;-86
2022/02/23 15:53:11;;;;;;;;;;;;;;;;;;5074573;28;19915;-86
2022/02/23 15:55:36;;;;;;;;;;;;;;;;;;5074700;28;20003;-87
2022/02/23 15:58:02;;;;;;;;;;;;;;;;;;5079533;28;20359;-87
2022/02/23 16:00:27;;;;;;;;;;;;;;;;;;5079921;28;20383;-87
2022/02/23 16:02:53;;;;;;;;;;;;;;;;;;5084017;28;19920;-87
2022/02/23 16:05:19;;;;;;;;;;;;;;;;;;5090721;28;20314;-86
2022/02/23 16:07:46;;;;;;;;;;;;;;;;;;5085887;28;20351;-86
2022/02/23 16:10:11;;;;;;;;;;;;;;;;;;5064798;28;19967;-86
2022/02/23 16:12:36;;;;;;;;;;;;;;;;;;5055450;28;19909;-86
2022/02/23 16:15:01;;;;;;;;;;;;;;;;;;5088607;28;19979;-87
2022/02/23 16:17:28;;;;;;;;;;;;;;;;;;5072701;28;19920;-86
2022/02/23 16:19:54;;;;;;;;;;;;;;;;;;5075889;28;19931;-87
2022/02/23 16:22:20;;;;;;;;;;;;;;;;;;5088144;28;19913;-86
2022/02/23 16:24:45;;;;;;;;;;;;;;;;;;5094478;28;19955;-86
2022/02/23 16:27:10;;;;;;;;;;;;;;;;;;5093175;28;19919;-86
2022/02/23 16:29:36;;;;;;;;;;;;;;;;;;5106804;28;19954;-86
2022/02/23 16:32:01;;;;;;;;;;;;;;;;;;5088434;28;19913;-86
2022/02/23 16:34:26;;;;;;;;;;;;;;;;;;5095461;28;19912;-86